Latest Coastal Weather Observations for Swan Island

IDT60701

Issued at 5:45 pm EST Thursday 18 September 2014 (issued every 10 minutes, with the page automatically refreshed every 10 minutes)

About coastal observations | Map of coastal stations | Coastal observations for TAS | Marine services | Other Formats
Station Details ID: 092123 Name: SWAN ISLAND Lat: -40.73 Lon: 148.12 Height: 15.0 m
Data from the previous 72 hours. | See also: Recent months at Swan Island
Date/Time
EST
Temp

°C
Wind Pressure Rain
since 9am
mm
Weather Cloud Vis
km
Sea
Height
m
Swell
Dir
 
Speed
knots
Gust
knots
hPa Trend Height
m
Period
s
Dir
18/05:30pm 12.2 W 18 26 1015.0 - 0.0 - - - - - - -
18/05:00pm 12.1 WNW 17 23 1015.0 - 0.0 - - - - - - -
18/04:30pm 12.8 WNW 16 23 1014.8 - 0.0 - - - - - - -
18/04:08pm 13.2 W 15 25 1014.8 - 0.0 - - - - - - -
18/04:00pm 13.2 W 16 26 1014.7 - 0.0 - - - - - - -
18/03:30pm 13.6 W 16 23 1014.8 - 0.0 - - - - - - -
18/03:01pm 13.2 WNW 16 26 1014.8 - 0.0 - - - - - - -
18/03:00pm 13.2 WNW 15 24 1014.8 - 0.0 - - - - - - -
18/02:30pm 13.5 WNW 15 21 1015.1 - 0.0 - - - - - - -
18/02:00pm 12.5 WNW 14 20 1015.3 - 0.0 - - - - - - -
18/01:30pm 12.5 WNW 14 19 1015.5 - 0.0 - - - - - - -
18/01:00pm 13.9 W 11 18 1015.5 - 0.0 - - - - - - -
18/12:30pm 14.3 W 12 17 1015.8 - 0.0 - - - - - - -
18/12:00pm 14.0 W 12 16 1016.1 - 0.0 - - - - - - -
18/11:30am 13.4 W 15 19 1016.1 - 0.0 - - - - - - -
18/11:00am 12.6 W 12 17 1016.2 - 0.0 - - - - - - -
18/10:30am 12.8 W 14 18 1016.0 - 0.0 - - - - - - -
18/10:00am 12.8 W 11 15 1016.0 - 0.0 - - - - - - -
18/09:30am 12.4 W 10 14 1015.9 - 0.0 - - - - - - -
18/09:00am 11.8 W 11 14 1015.6 - 0.2 - - - - - - -
18/08:30am 10.9 W 10 15 1015.3 - 0.2 - - - - - - -
18/08:00am 10.1 W 8 14 1015.1 - 0.2 - - - - - - -
18/07:30am 9.0 W 8 12 1014.8 - 0.2 - - - - - - -
18/07:00am 9.1 W 10 15 1014.2 - 0.2 - - - - - - -
18/06:30am 8.0 WSW 8 13 1013.7 - 0.2 - - - - - - -
18/06:00am 7.2 WSW 8 12 1013.3 - 0.2 - - - - - - -
18/05:30am 7.2 WSW 7 11 1012.9 - 0.2 - - - - - - -
18/05:00am 7.5 WSW 9 12 1012.2 - 0.2 - - - - - - -
18/04:30am 7.5 WSW 8 13 1011.8 - 0.2 - - - - - - -
18/04:00am 7.6 WSW 9 13 1011.4 - 0.2 - - - - - - -
18/03:30am 7.5 WSW 10 16 1011.0 - 0.2 - - - - - - -
18/03:00am 7.3 WSW 11 17 1010.7 - 0.2 - - - - - - -
18/02:30am 7.3 W 12 21 1010.2 - 0.2 - - - - - - -
18/02:00am 6.9 WSW 12 18 1010.0 - 0.2 - - - - - - -
18/01:30am 7.2 W 12 20 1010.0 - 0.2 - - - - - - -
18/01:00am 7.5 W 13 22 1009.8 - 0.2 - - - - - - -
18/12:30am 7.3 W 11 17 1009.8 - 0.2 - - - - - - -
18/12:00am 7.3 W 11 18 1009.5 - 0.2 - - - - - - -
 
Date/Time
EST
Temp

°C
Wind Pressure Rain
since 9am
mm
Weather Cloud Vis
km
Sea
Height
m
Swell
Dir
 
Speed
knots
Gust
knots
hPa Trend Height
m
Period
s
Dir
17/11:30pm 7.5 W 13 19 1009.5 - 0.2 - - - - - - -
17/11:00pm 7.3 WSW 13 20 1009.5 - 0.2 - - - - - - -
17/10:30pm 7.8 WSW 12 19 1009.3 - 0.2 - - - - - - -
17/10:00pm 8.3 WSW 13 23 1009.2 - 0.2 - - - - - - -
17/09:30pm 8.6 W 12 19 1008.8 - 0.2 - - - - - - -
17/09:00pm 8.3 W 13 20 1008.9 - 0.2 - - - - - - -
17/08:30pm 8.6 W 13 20 1008.5 - 0.2 - - - - - - -
17/08:00pm 8.7 WSW 14 20 1008.2 - 0.2 - - - - - - -
17/07:30pm 9.2 WSW 14 22 1007.7 - 0.2 - - - - - - -
17/07:00pm 9.5 W 14 21 1007.0 - 0.2 - - - - - - -
17/06:30pm 9.6 WSW 12 21 1006.3 - 0.2 - - - - - - -
17/06:00pm 9.8 W 14 22 1005.8 - 0.2 - - - - - - -
17/05:30pm 8.5 WSW 6 11 1005.3 - 0.2 - - - - - - -
17/05:00pm 7.3 SSW 11 21 1005.2 - 0.2 - - - - - - -
17/04:30pm 10.1 SW 13 19 1004.7 - 0.0 - - - - - - -
17/04:26pm 10.8 SW 14 17 1004.5 - 0.0 - - - - - - -
17/04:15pm 11.0 W 24 34 1003.8 - 0.0 - - - - - - -
17/04:00pm 10.9 W 24 32 1003.6 - 0.0 - - - - - - -
17/03:30pm 11.4 W 22 33 1003.1 - 0.0 - - - - - - -
17/03:00pm 11.8 W 22 32 1002.6 - 0.0 - - - - - - -
17/02:32pm 11.8 WNW 23 34 1002.2 - 0.0 - - - - - - -
17/02:30pm 11.8 WNW 24 34 1002.2 - 0.0 - - - - - - -
17/02:05pm 11.9 WNW 21 31 1002.5 - 0.0 - - - - - - -
17/02:00pm 12.0 WNW 21 30 1002.6 - 0.0 - - - - - - -
17/01:30pm 12.4 W 20 33 1002.6 - 0.0 - - - - - - -
17/01:16pm 13.0 WNW 17 28 1002.8 - 0.0 - - - - - - -
17/01:00pm 12.6 W 18 26 1003.0 - 0.0 - - - - - - -
17/12:33pm 12.9 W 18 28 1003.4 - 0.0 - - - - - - -
17/12:30pm 12.9 W 17 25 1003.4 - 0.0 - - - - - - -
17/12:00pm 11.7 W 22 31 1003.9 - 0.0 - - - - - - -
17/11:41am 12.5 W 18 29 1004.1 - 0.0 - - - - - - -
17/11:30am 12.7 W 17 25 1004.2 - 0.0 - - - - - - -
17/11:01am 12.2 WNW 17 27 1004.4 - 0.0 - - - - - - -
17/11:00am 12.1 W 18 27 1004.4 - 0.0 - - - - - - -
17/10:31am 13.8 W 16 26 1004.6 - 0.0 - - - - - - -
17/10:30am 13.5 W 17 26 1004.6 - 0.0 - - - - - - -
17/10:26am 13.1 W 16 26 1004.6 - 0.0 - - - - - - -
17/10:00am 12.9 W 15 23 1004.9 - 0.0 - - - - - - -
17/09:30am 12.1 W 15 24 1005.3 - 0.0 - - - - - - -
17/09:00am 11.9 W 11 16 1005.6 - 10.4 - - - - - - -
17/08:30am 11.5 W 9 12 1005.9 - 10.4 - - - - - - -
17/08:00am 11.4 W 8 10 1006.1 - 10.4 - - - - - - -
17/07:30am 10.6 W 6 10 1006.2 - 10.4 - - - - - - -
17/07:00am 9.6 WSW 6 10 1006.3 - 10.4 - - - - - - -
17/06:30am 9.1 W 8 11 1006.5 - 10.4 - - - - - - -
17/06:00am 8.6 W 7 9 1006.7 - 10.4 Recent precip. - - - - - -
17/05:30am 8.9 W 8 12 1006.7 - 10.4 - - - - - - -
17/05:00am 8.9 W 6 10 1006.7 - 10.2 - - - - - - -
17/04:30am 9.1 WSW 8 10 1006.7 - 10.2 - - - - - - -
17/04:00am 9.3 WSW 8 13 1006.9 - 10.2 - - - - - - -
17/03:30am 9.7 W 9 12 1007.0 - 10.2 - - - - - - -
17/03:00am 9.7 W 5 10 1007.1 - 10.2 - - - - - - -
17/02:30am 9.6 WSW 5 8 1007.3 - 10.2 - - - - - - -
17/02:00am 9.8 W 7 12 1007.6 - 10.2 - - - - - - -
17/01:30am 9.7 W 5 9 1007.8 - 10.2 - - - - - - -
17/01:00am 9.7 W 7 11 1008.2 - 10.2 - - - - - - -
17/12:30am 9.7 SW 6 9 1008.2 - 10.2 - - - - - - -
17/12:00am 9.6 SW 7 10 1008.2 - 10.2 Recent precip. - - - - - -
 
Date/Time
EST
Temp

°C
Wind Pressure Rain
since 9am
mm
Weather Cloud Vis
km
Sea
Height
m
Swell
Dir
 
Speed
knots
Gust
knots
hPa Trend Height
m
Period
s
Dir
16/11:30pm 9.8 SSW 7 11 1008.3 - 10.0 - - - - - - -
16/11:00pm 10.0 S 9 14 1008.4 - 10.0 - - - - - - -
16/10:30pm 9.8 S 8 13 1008.4 - 10.0 - - - - - - -
16/10:00pm 10.6 S 14 18 1008.3 - 10.0 - - - - - - -
16/09:30pm 10.4 SSE 15 21 1008.3 - 9.8 - - - - - - -
16/09:00pm 10.4 SSE 16 21 1008.3 - 9.8 - - - - - - -
16/08:30pm 10.0 SSE 17 22 1008.2 - 9.8 - - - - - - -
16/08:00pm 9.5 S 15 19 1008.3 - 9.8 - - - - - - -
16/07:30pm 9.5 S 16 23 1008.7 - 9.8 - - - - - - -
16/07:00pm 9.3 S 15 20 1008.8 - 9.4 - - - - - - -
16/06:30pm 9.5 S 13 19 1008.8 - 9.0 - - - - - - -
16/06:00pm 10.4 S 13 17 1008.9 - 6.4 Rain - - - - - -
16/05:30pm 10.7 SSE 16 21 1008.5 - 4.6 - - - - - - -
16/05:00pm 11.0 SE 15 19 1008.4 - 3.6 - - - - - - -
16/04:30pm 10.9 SE 16 20 1008.4 - 2.8 - - - - - - -
16/04:00pm 10.9 SE 15 18 1008.4 - 2.6 - - - - - - -
16/03:30pm 10.8 SE 15 18 1008.6 - 2.4 - - - - - - -
16/03:00pm 10.7 ESE 17 19 1008.7 - 2.2 Rain - - - - - -
16/02:30pm 10.7 ESE 17 19 1008.8 - 2.0 - - - - - - -
16/02:00pm 10.9 ESE 18 21 1009.0 - 1.8 - - - - - - -
16/01:30pm 10.8 ESE 18 21 1009.3 - 1.6 - - - - - - -
16/01:00pm 10.6 ESE 16 20 1009.7 - 1.2 - - - - - - -
16/12:30pm 10.7 ESE 16 19 1010.3 - 1.0 - - - - - - -
16/12:00pm 10.8 SE 15 18 1010.8 - 0.6 Recent precip. - - - - - -
16/11:30am 11.1 ESE 14 17 1011.3 - 0.2 - - - - - - -
16/11:00am 11.4 ESE 13 17 1011.7 - 0.0 - - - - - - -
16/10:30am 11.3 ESE 12 14 1012.0 - 0.0 - - - - - - -
16/10:00am 11.4 ESE 12 15 1012.3 - 0.0 - - - - - - -
16/09:30am 10.8 ESE 12 15 1012.5 - 0.0 - - - - - - -
16/09:00am 10.6 E 11 14 1012.7 - 1.0 Recent precip. - - - - - -
16/08:30am 10.7 E 10 12 1013.1 - 1.0 - - - - - - -
16/08:00am 10.8 E 11 13 1013.1 - 0.8 - - - - - - -
16/07:30am 11.6 E 10 13 1013.0 - 0.0 - - - - - - -
16/07:00am 11.8 E 12 15 1012.8 - 0.0 - - - - - - -
16/06:30am 11.9 E 13 16 1012.5 - 0.0 - - - - - - -
16/06:00am 11.9 E 14 17 1012.4 - 0.0 - - - - - - -
16/05:30am 11.8 ENE 13 15 1012.6 - 0.0 - - - - - - -
16/05:00am 11.9 E 12 15 1012.7 - 0.0 - - - - - - -
16/04:30am 11.8 E 12 15 1012.8 - 0.0 - - - - - - -
16/04:00am 11.8 ENE 12 13 1013.0 - 0.0 - - - - - - -
16/03:30am 11.8 E 12 15 1012.9 - 0.0 - - - - - - -
16/03:00am 11.5 E 13 15 1013.1 - 0.0 - - - - - - -
16/02:30am 11.6 E 12 14 1013.4 - 0.0 - - - - - - -
16/02:00am 11.7 E 12 15 1013.7 - 0.0 - - - - - - -
16/01:30am 11.5 E 12 15 1014.0 - 0.0 - - - - - - -
16/01:00am 11.5 E 12 15 1014.6 - 0.0 - - - - - - -
16/12:30am 11.5 E 12 14 1014.8 - 0.0 - - - - - - -
16/12:00am 11.3 E 11 13 1015.4 - 0.0 - - - - - - -
 
Date/Time
EST
Temp

°C
Wind Pressure Rain
since 9am
mm
Weather Cloud Vis
km
Sea
Height
m
Swell
Dir
 
Speed
knots
Gust
knots
hPa Trend Height
m
Period
s
Dir
15/11:30pm 11.3 E 12 15 1015.4 - 0.0 - - - - - - -
15/11:00pm 11.3 E 11 14 1015.9 - 0.0 - - - - - - -
15/10:30pm 11.2 E 11 14 1016.2 - 0.0 - - - - - - -
15/10:00pm 11.0 E 10 12 1016.5 - 0.0 - - - - - - -
15/09:30pm 10.9 E 10 12 1016.7 - 0.0 - - - - - - -
15/09:00pm 11.1 E 10 12 1016.7 - 0.0 - - - - - - -
15/08:30pm 11.1 E 9 11 1016.9 - 0.0 - - - - - - -
15/08:00pm 11.0 E 9 11 1017.0 - 0.0 - - - - - - -
15/07:30pm 10.9 E 11 13 1016.7 - 0.0 - - - - - - -
15/07:00pm 10.7 E 10 13 1016.5 - 0.0 - - - - - - -
15/06:30pm 10.7 ESE 9 11 1016.6 - 0.0 - - - - - - -
15/06:00pm 10.8 E 10 12 1016.4 - 0.0 - - - - - - -

Other Formats:

Comma delimited format used in spreadsheet applications
http://www.bom.gov.au/fwo/IDT60701/IDT60701.95985.axf

JavaScript Object Notation format (JSON) in row-major order
http://www.bom.gov.au/fwo/IDT60701/IDT60701.95985.json